Terminal Aerodrome Forecast
Issued by NWS

Home | Current Version | Previous Version | Text Only | Print | Product List | Glossary On
Versions: 1 2 3 4 5 6 7 8 9 10 11 12 13
000
FTUS41 KRNK 241138
TAFBCB
TAF
KBCB 241138Z 2412/2512 VRB03KT P6SM BKN150
     FM241500 14003KT P6SM SCT150
     FM241900 17005KT P6SM SCT120 BKN250
     FM250200 VRB03KT P6SM SCT100 BKN250=

USA.gov is the U.S. government's official web portal to all federal, state and local government web resources and services.